• Join FlightAware (Why Join?)
  • Login
  • US Flag 
02:42AM EDT


 

Airport Tracker/Info


-or-


 

Live Flight TrackerFlight Track Log ✈ N6224J ✈ 19-May-2013 ✈ KJKA - KAUO

Flight Track Log - Related Links

Times and Time Zones

All times are in EDT time to prevent confusion due to time zone crossing. See the N6224J flight status page for this flight to view local times or setup timezone preferences in your user account.

Time Position Orientation Groundspeed Altitude Reporting Facility
EDT Latitude Longitude Course Direction KTS MPH feet Rate Location/Type
03:14PM 31.0144 -87.0033 40° Northeast 111 128 5,700  Level Jacksonville Center
03:15PM 31.0381 -86.9803 40° Northeast 111 128 5,700  Level Jacksonville Center
03:16PM 31.0617 -86.9594 37° Northeast 111 128 5,700  Level Jacksonville Center
03:17PM 31.0853 -86.9386 37° Northeast 106 122 5,700  Level Jacksonville Center
03:18PM 31.1069 -86.9128 46° Northeast 106 122 5,700  Level Jacksonville Center
03:19PM 31.1306 -86.8919 37° Northeast 101 116 5,700  Level Jacksonville Center
03:20PM 31.1542 -86.8736 34° Northeast 101 116 5,800  Climbing Jacksonville Center
03:21PM 31.1758 -86.8478 46° Northeast 101 116 5,800  Level Jacksonville Center
03:22PM 31.1994 -86.8269 37° Northeast 101 116 5,800 -60 Level Jacksonville Center
03:23PM 31.2231 -86.8086 34° Northeast 101 116 5,700 -60 Descending Jacksonville Center
03:24PM 31.2486 -86.7878 35° Northeast 106 122 5,700  Level Jacksonville Center
03:25PM 31.2703 -86.7619 46° Northeast 106 122 5,700  Level Jacksonville Center
03:26PM 31.2811 -86.7478 48° Northeast 110 127 5,700  Level Jacksonville Center
03:26PM 31.2961 -86.7411 21° North 106 122 5,700  Level Jacksonville Center
03:27PM 31.3111 -86.7222 47° Northeast 109 125 5,700  Level Jacksonville Center
03:27PM 31.3197 -86.7203 11° North 106 122 5,700  Level Jacksonville Center
03:28PM 31.3369 -86.7014 43° Northeast 111 128 5,700  Level Jacksonville Center
03:29PM 31.3606 -86.6806 37° Northeast 109 125 5,700  Level Jacksonville Center
03:30PM 31.3864 -86.6547 40° Northeast 109 125 5,700  Level Jacksonville Center
03:31PM 31.4078 -86.6336 40° Northeast 111 128 5,800  Climbing Jacksonville Center
03:32PM 31.4397 -86.6083 34° Northeast 106 122 5,800 -60 Level Jacksonville Center
03:33PM 31.4614 -86.5847 43° Northeast 111 128 5,700 -60 Descending Jacksonville Center
03:34PM 31.4850 -86.5614 40° Northeast 113 130 5,700  Level Jacksonville Center
03:34PM 31.4850 -86.5614 40° Northeast 106 122 5,700  Level Jacksonville Center
03:35PM 31.5086 -86.5378 40° Northeast 106 122 5,700  Level Jacksonville Center
03:36PM 31.5344 -86.5169 35° Northeast 106 122 5,700  Level Jacksonville Center
03:37PM 31.5558 -86.4911 46° Northeast 110 127 5,700  Level Jacksonville Center
03:39PM 31.5817 -86.4675 38° Northeast 110 127 5,700  Level Jacksonville Center
03:39PM 31.6031 -86.4464 40° Northeast 110 127 5,700  Level Jacksonville Center
03:41PM 31.6289 -86.4181 43° Northeast 116 133 5,700  Level Jacksonville Center
03:42PM 31.6528 -86.3922 43° Northeast 112 129 5,700  Level Jacksonville Center
03:43PM 31.6742 -86.3711 40° Northeast 110 127 5,700  Level Jacksonville Center
03:44PM 31.7000 -86.3428 43° Northeast 111 128 5,700  Level Jacksonville Center
03:44PM 31.7214 -86.3264 33° Northeast 111 128 5,700  Level Jacksonville Center
03:46PM 31.7583 -86.2845 44° Northeast  Level FlightAware Approximate
03:53PM 32.0082 -86.0087 40° Northeast  Level FlightAware Approximate
03:54PM 32.0456 -85.9715 40° Northeast  Level FlightAware Approximate
03:55PM 32.0829 -85.9342 40° Northeast  Level FlightAware Approximate
03:56PM 32.1201 -85.8970 40° Northeast  Level FlightAware Approximate
03:57PM 32.1574 -85.8597 40° Northeast  Level FlightAware Approximate
03:58PM 32.1947 -85.8224 40° Northeast  Level FlightAware Approximate
03:59PM 32.2319 -85.7850 40° Northeast  Level FlightAware Approximate
04:00PM 32.2692 -85.7476 40° Northeast  Level FlightAware Approximate
04:01PM 32.3068 -85.7107 37° Northeast  Level FlightAware Approximate
04:02PM 32.3458 -85.6760 37° Northeast  Level FlightAware Approximate
04:03PM 32.3849 -85.6413 37° Northeast  Level FlightAware Approximate
04:04PM 32.4240 -85.6065 37° Northeast  Level FlightAware Approximate
04:05PM 32.4625 -85.5709 40° Northeast  Level FlightAware Approximate